sensor_id;sensor_type;location;lat;lon;timestamp;temperature;humidity
77100;SHT31;66602;48.922;2.414;2023-07-22T00:01:50;16.10;57.06
77100;SHT31;66602;48.922;2.414;2023-07-22T00:04:16;16.09;57.04
77100;SHT31;66602;48.922;2.414;2023-07-22T00:06:42;16.08;57.35
77100;SHT31;66602;48.922;2.414;2023-07-22T00:09:07;16.05;57.13
77100;SHT31;66602;48.922;2.414;2023-07-22T00:11:35;15.99;57.65
77100;SHT31;66602;48.922;2.414;2023-07-22T00:14:01;15.92;57.54
77100;SHT31;66602;48.922;2.414;2023-07-22T00:16:26;15.81;57.86
77100;SHT31;66602;48.922;2.414;2023-07-22T00:18:54;15.75;58.14
77100;SHT31;66602;48.922;2.414;2023-07-22T00:21:20;15.71;58.04
77100;SHT31;66602;48.922;2.414;2023-07-22T00:23:46;15.61;58.54
77100;SHT31;66602;48.922;2.414;2023-07-22T00:26:11;15.61;58.90
77100;SHT31;66602;48.922;2.414;2023-07-22T00:28:37;15.54;58.85
77100;SHT31;66602;48.922;2.414;2023-07-22T00:31:03;15.50;59.00
77100;SHT31;66602;48.922;2.414;2023-07-22T00:33:29;15.53;58.96
77100;SHT31;66602;48.922;2.414;2023-07-22T00:35:54;15.48;59.34
77100;SHT31;66602;48.922;2.414;2023-07-22T00:38:20;15.47;59.28
77100;SHT31;66602;48.922;2.414;2023-07-22T00:40:46;15.43;58.98
77100;SHT31;66602;48.922;2.414;2023-07-22T00:43:12;15.40;59.78
77100;SHT31;66602;48.922;2.414;2023-07-22T00:45:37;15.41;59.46
77100;SHT31;66602;48.922;2.414;2023-07-22T00:48:05;15.33;60.06
77100;SHT31;66602;48.922;2.414;2023-07-22T00:50:31;15.26;60.27
77100;SHT31;66602;48.922;2.414;2023-07-22T00:52:58;15.16;60.50
77100;SHT31;66602;48.922;2.414;2023-07-22T00:55:25;15.10;60.19
77100;SHT31;66602;48.922;2.414;2023-07-22T00:57:50;15.06;60.92
77100;SHT31;66602;48.922;2.414;2023-07-22T01:00:16;15.02;60.60
77100;SHT31;66602;48.922;2.414;2023-07-22T01:02:42;14.95;61.33
77100;SHT31;66602;48.922;2.414;2023-07-22T01:05:09;14.86;61.42
77100;SHT31;66602;48.922;2.414;2023-07-22T01:07:39;14.85;61.28
77100;SHT31;66602;48.922;2.414;2023-07-22T01:10:05;14.79;61.90
77100;SHT31;66602;48.922;2.414;2023-07-22T01:12:31;14.75;61.90
77100;SHT31;66602;48.922;2.414;2023-07-22T01:14:57;14.69;62.58
77100;SHT31;66602;48.922;2.414;2023-07-22T01:17:23;14.62;62.70
77100;SHT31;66602;48.922;2.414;2023-07-22T01:19:50;14.58;62.93
77100;SHT31;66602;48.922;2.414;2023-07-22T01:22:16;14.51;63.20
77100;SHT31;66602;48.922;2.414;2023-07-22T01:24:42;14.44;63.19
77100;SHT31;66602;48.922;2.414;2023-07-22T01:27:08;14.40;63.56
77100;SHT31;66602;48.922;2.414;2023-07-22T01:29:35;14.31;63.83
77100;SHT31;66602;48.922;2.414;2023-07-22T01:32:01;14.21;64.00
77100;SHT31;66602;48.922;2.414;2023-07-22T01:34:27;14.11;64.88
77100;SHT31;66602;48.922;2.414;2023-07-22T01:36:52;14.03;65.30
77100;SHT31;66602;48.922;2.414;2023-07-22T01:39:19;14.04;65.04
77100;SHT31;66602;48.922;2.414;2023-07-22T01:41:46;14.00;65.11
77100;SHT31;66602;48.922;2.414;2023-07-22T01:44:11;13.96;65.05
77100;SHT31;66602;48.922;2.414;2023-07-22T01:46:37;13.90;65.66
77100;SHT31;66602;48.922;2.414;2023-07-22T01:49:08;13.80;66.24
77100;SHT31;66602;48.922;2.414;2023-07-22T01:51:35;13.70;66.80
77100;SHT31;66602;48.922;2.414;2023-07-22T01:54:03;13.65;66.80
77100;SHT31;66602;48.922;2.414;2023-07-22T01:56:28;13.63;66.78
77100;SHT31;66602;48.922;2.414;2023-07-22T01:58:54;13.67;66.60
77100;SHT31;66602;48.922;2.414;2023-07-22T02:01:20;13.73;66.32
77100;SHT31;66602;48.922;2.414;2023-07-22T02:03:45;13.76;66.23
77100;SHT31;66602;48.922;2.414;2023-07-22T02:06:12;13.79;66.28
77100;SHT31;66602;48.922;2.414;2023-07-22T02:08:37;13.79;65.98
77100;SHT31;66602;48.922;2.414;2023-07-22T02:11:05;13.77;66.40
77100;SHT31;66602;48.922;2.414;2023-07-22T02:13:32;13.77;66.16
77100;SHT31;66602;48.922;2.414;2023-07-22T02:15:58;13.73;66.30
77100;SHT31;66602;48.922;2.414;2023-07-22T02:18:24;13.69;66.68
77100;SHT31;66602;48.922;2.414;2023-07-22T02:20:49;13.67;66.66
77100;SHT31;66602;48.922;2.414;2023-07-22T02:23:15;13.73;66.46
77100;SHT31;66602;48.922;2.414;2023-07-22T02:25:40;13.74;66.83
77100;SHT31;66602;48.922;2.414;2023-07-22T02:28:06;13.79;66.53
77100;SHT31;66602;48.922;2.414;2023-07-22T02:30:35;13.79;66.57
77100;SHT31;66602;48.922;2.414;2023-07-22T02:33:02;13.70;67.01
77100;SHT31;66602;48.922;2.414;2023-07-22T02:35:28;13.74;66.69
77100;SHT31;66602;48.922;2.414;2023-07-22T02:37:54;13.70;67.35
77100;SHT31;66602;48.922;2.414;2023-07-22T02:40:19;13.66;67.45
77100;SHT31;66602;48.922;2.414;2023-07-22T02:42:45;13.56;68.35
77100;SHT31;66602;48.922;2.414;2023-07-22T02:45:10;13.52;68.52
77100;SHT31;66602;48.922;2.414;2023-07-22T02:47:37;13.51;68.26
77100;SHT31;66602;48.922;2.414;2023-07-22T02:50:05;13.46;68.53
77100;SHT31;66602;48.922;2.414;2023-07-22T02:52:30;13.35;68.91
77100;SHT31;66602;48.922;2.414;2023-07-22T02:55:09;13.28;69.23
77100;SHT31;66602;48.922;2.414;2023-07-22T02:57:37;13.21;69.29
77100;SHT31;66602;48.922;2.414;2023-07-22T03:00:03;13.14;69.84
77100;SHT31;66602;48.922;2.414;2023-07-22T03:02:32;13.08;69.97
77100;SHT31;66602;48.922;2.414;2023-07-22T03:04:58;13.04;70.26
77100;SHT31;66602;48.922;2.414;2023-07-22T03:07:24;13.10;70.20
77100;SHT31;66602;48.922;2.414;2023-07-22T03:09:51;13.12;70.21
77100;SHT31;66602;48.922;2.414;2023-07-22T03:12:17;13.05;70.37
77100;SHT31;66602;48.922;2.414;2023-07-22T03:14:42;13.02;70.49
77100;SHT31;66602;48.922;2.414;2023-07-22T03:17:08;13.08;70.62
77100;SHT31;66602;48.922;2.414;2023-07-22T03:19:33;13.08;70.73
77100;SHT31;66602;48.922;2.414;2023-07-22T03:21:59;13.10;70.64
77100;SHT31;66602;48.922;2.414;2023-07-22T03:24:24;13.10;70.79
77100;SHT31;66602;48.922;2.414;2023-07-22T03:26:50;13.15;70.90
77100;SHT31;66602;48.922;2.414;2023-07-22T03:29:16;13.19;70.47
77100;SHT31;66602;48.922;2.414;2023-07-22T03:31:41;13.22;70.22
77100;SHT31;66602;48.922;2.414;2023-07-22T03:34:07;13.22;70.33
77100;SHT31;66602;48.922;2.414;2023-07-22T03:36:32;13.28;70.32
77100;SHT31;66602;48.922;2.414;2023-07-22T03:39:01;13.29;70.39
77100;SHT31;66602;48.922;2.414;2023-07-22T03:41:26;13.26;70.30
77100;SHT31;66602;48.922;2.414;2023-07-22T03:43:52;13.19;70.66
77100;SHT31;66602;48.922;2.414;2023-07-22T03:46:17;13.12;70.82
77100;SHT31;66602;48.922;2.414;2023-07-22T03:48:43;13.15;70.90
77100;SHT31;66602;48.922;2.414;2023-07-22T03:51:08;13.15;71.07
77100;SHT31;66602;48.922;2.414;2023-07-22T03:53:34;13.15;70.99
77100;SHT31;66602;48.922;2.414;2023-07-22T03:55:59;13.22;70.42
77100;SHT31;66602;48.922;2.414;2023-07-22T03:58:25;13.34;70.53
77100;SHT31;66602;48.922;2.414;2023-07-22T04:00:50;13.32;70.82
77100;SHT31;66602;48.922;2.414;2023-07-22T04:03:16;13.22;70.81
77100;SHT31;66602;48.922;2.414;2023-07-22T04:05:42;13.16;70.60
77100;SHT31;66602;48.922;2.414;2023-07-22T04:08:07;13.10;71.25
77100;SHT31;66602;48.922;2.414;2023-07-22T04:10:32;13.08;71.47
77100;SHT31;66602;48.922;2.414;2023-07-22T04:12:58;13.04;71.48
77100;SHT31;66602;48.922;2.414;2023-07-22T04:15:23;13.02;71.44
77100;SHT31;66602;48.922;2.414;2023-07-22T04:17:49;13.00;71.74
77100;SHT31;66602;48.922;2.414;2023-07-22T04:20:14;12.95;71.90
77100;SHT31;66602;48.922;2.414;2023-07-22T04:22:41;13.00;72.23
77100;SHT31;66602;48.922;2.414;2023-07-22T04:25:07;12.98;72.22
77100;SHT31;66602;48.922;2.414;2023-07-22T04:27:32;12.98;72.28
77100;SHT31;66602;48.922;2.414;2023-07-22T04:29:58;13.01;71.58
77100;SHT31;66602;48.922;2.414;2023-07-22T04:32:23;13.05;71.83
77100;SHT31;66602;48.922;2.414;2023-07-22T04:34:49;13.19;70.95
77100;SHT31;66602;48.922;2.414;2023-07-22T04:37:14;13.31;71.17
77100;SHT31;66602;48.922;2.414;2023-07-22T04:39:42;13.29;71.29
77100;SHT31;66602;48.922;2.414;2023-07-22T04:42:08;13.31;71.00
77100;SHT31;66602;48.922;2.414;2023-07-22T04:44:33;13.39;70.70
77100;SHT31;66602;48.922;2.414;2023-07-22T04:46:59;13.51;70.90
77100;SHT31;66602;48.922;2.414;2023-07-22T04:49:25;13.55;70.36
77100;SHT31;66602;48.922;2.414;2023-07-22T04:51:51;13.58;70.28
77100;SHT31;66602;48.922;2.414;2023-07-22T04:54:19;13.59;69.86
77100;SHT31;66602;48.922;2.414;2023-07-22T04:56:45;13.62;70.03
77100;SHT31;66602;48.922;2.414;2023-07-22T04:59:10;13.69;70.04
77100;SHT31;66602;48.922;2.414;2023-07-22T05:01:36;13.70;70.07
77100;SHT31;66602;48.922;2.414;2023-07-22T05:04:02;13.74;70.05
77100;SHT31;66602;48.922;2.414;2023-07-22T05:06:29;13.77;69.39
77100;SHT31;66602;48.922;2.414;2023-07-22T05:08:55;13.86;69.68
77100;SHT31;66602;48.922;2.414;2023-07-22T05:11:20;13.96;68.92
77100;SHT31;66602;48.922;2.414;2023-07-22T05:13:48;14.01;68.38
77100;SHT31;66602;48.922;2.414;2023-07-22T05:16:14;14.04;68.61
77100;SHT31;66602;48.922;2.414;2023-07-22T05:18:39;14.10;68.74
77100;SHT31;66602;48.922;2.414;2023-07-22T05:21:05;14.20;67.77
77100;SHT31;66602;48.922;2.414;2023-07-22T05:23:30;14.28;67.55
77100;SHT31;66602;48.922;2.414;2023-07-22T05:25:56;14.34;67.65
77100;SHT31;66602;48.922;2.414;2023-07-22T05:28:21;14.44;67.01
77100;SHT31;66602;48.922;2.414;2023-07-22T05:30:47;14.54;66.48
77100;SHT31;66602;48.922;2.414;2023-07-22T05:33:13;14.64;66.84
77100;SHT31;66602;48.922;2.414;2023-07-22T05:35:38;14.76;66.23
77100;SHT31;66602;48.922;2.414;2023-07-22T05:38:04;14.80;65.74
77100;SHT31;66602;48.922;2.414;2023-07-22T05:40:31;14.89;65.45
77100;SHT31;66602;48.922;2.414;2023-07-22T05:42:56;14.99;65.79
77100;SHT31;66602;48.922;2.414;2023-07-22T05:45:22;15.03;65.38
77100;SHT31;66602;48.922;2.414;2023-07-22T05:47:50;15.14;64.42
77100;SHT31;66602;48.922;2.414;2023-07-22T05:50:16;15.22;63.86
77100;SHT31;66602;48.922;2.414;2023-07-22T05:52:41;15.27;64.02
77100;SHT31;66602;48.922;2.414;2023-07-22T05:55:07;15.27;64.29
77100;SHT31;66602;48.922;2.414;2023-07-22T05:57:33;15.30;64.50
77100;SHT31;66602;48.922;2.414;2023-07-22T05:59:58;15.36;64.20
77100;SHT31;66602;48.922;2.414;2023-07-22T06:02:23;15.44;63.60
77100;SHT31;66602;48.922;2.414;2023-07-22T06:04:49;15.53;63.83
77100;SHT31;66602;48.922;2.414;2023-07-22T06:07:14;15.60;63.91
77100;SHT31;66602;48.922;2.414;2023-07-22T06:09:40;15.75;62.03
77100;SHT31;66602;48.922;2.414;2023-07-22T06:12:06;15.92;61.67
77100;SHT31;66602;48.922;2.414;2023-07-22T06:14:34;16.04;61.70
77100;SHT31;66602;48.922;2.414;2023-07-22T06:17:02;16.15;61.55
77100;SHT31;66602;48.922;2.414;2023-07-22T06:19:27;16.30;61.67
77100;SHT31;66602;48.922;2.414;2023-07-22T06:21:53;16.42;62.01
77100;SHT31;66602;48.922;2.414;2023-07-22T06:24:19;16.53;61.36
77100;SHT31;66602;48.922;2.414;2023-07-22T06:26:45;16.64;62.08
77100;SHT31;66602;48.922;2.414;2023-07-22T06:29:10;16.77;61.54
77100;SHT31;66602;48.922;2.414;2023-07-22T06:31:36;16.92;62.52
77100;SHT31;66602;48.922;2.414;2023-07-22T06:34:01;17.04;62.49
77100;SHT31;66602;48.922;2.414;2023-07-22T06:36:28;17.17;61.42
77100;SHT31;66602;48.922;2.414;2023-07-22T06:38:54;17.32;61.90
77100;SHT31;66602;48.922;2.414;2023-07-22T06:41:20;17.38;62.14
77100;SHT31;66602;48.922;2.414;2023-07-22T06:43:45;17.46;62.35
77100;SHT31;66602;48.922;2.414;2023-07-22T06:46:11;17.56;61.91
77100;SHT31;66602;48.922;2.414;2023-07-22T06:48:37;17.59;62.06
77100;SHT31;66602;48.922;2.414;2023-07-22T06:51:02;17.72;61.63
77100;SHT31;66602;48.922;2.414;2023-07-22T06:53:28;17.89;60.56
77100;SHT31;66602;48.922;2.414;2023-07-22T06:55:53;18.07;60.54
77100;SHT31;66602;48.922;2.414;2023-07-22T06:58:22;18.30;59.90
77100;SHT31;66602;48.922;2.414;2023-07-22T07:00:54;18.58;59.20
77100;SHT31;66602;48.922;2.414;2023-07-22T07:03:21;19.30;57.89
77100;SHT31;66602;48.922;2.414;2023-07-22T07:05:54;21.03;52.70
77100;SHT31;66602;48.922;2.414;2023-07-22T07:08:20;22.39;48.82
77100;SHT31;66602;48.922;2.414;2023-07-22T07:10:45;22.91;48.18
77100;SHT31;66602;48.922;2.414;2023-07-22T07:13:11;23.18;47.60
77100;SHT31;66602;48.922;2.414;2023-07-22T07:15:37;22.30;49.73
77100;SHT31;66602;48.922;2.414;2023-07-22T07:18:03;22.33;50.25
77100;SHT31;66602;48.922;2.414;2023-07-22T07:20:28;22.34;49.95
77100;SHT31;66602;48.922;2.414;2023-07-22T07:22:53;23.49;47.84
77100;SHT31;66602;48.922;2.414;2023-07-22T07:25:19;24.35;45.45
77100;SHT31;66602;48.922;2.414;2023-07-22T07:27:44;25.35;44.62
77100;SHT31;66602;48.922;2.414;2023-07-22T07:30:10;24.59;43.96
77100;SHT31;66602;48.922;2.414;2023-07-22T07:32:36;23.20;46.75
77100;SHT31;66602;48.922;2.414;2023-07-22T07:35:02;22.55;48.60
77100;SHT31;66602;48.922;2.414;2023-07-22T07:37:29;22.65;48.68
77100;SHT31;66602;48.922;2.414;2023-07-22T07:39:55;22.45;48.81
77100;SHT31;66602;48.922;2.414;2023-07-22T07:42:27;22.27;51.11
77100;SHT31;66602;48.922;2.414;2023-07-22T07:44:53;21.89;50.28
77100;SHT31;66602;48.922;2.414;2023-07-22T07:47:18;21.15;52.70
77100;SHT31;66602;48.922;2.414;2023-07-22T07:49:45;20.35;54.53
77100;SHT31;66602;48.922;2.414;2023-07-22T07:52:10;20.53;55.22
77100;SHT31;66602;48.922;2.414;2023-07-22T07:54:36;21.37;52.31
77100;SHT31;66602;48.922;2.414;2023-07-22T07:57:04;22.40;48.81
77100;SHT31;66602;48.922;2.414;2023-07-22T07:59:30;22.55;48.17
77100;SHT31;66602;48.922;2.414;2023-07-22T08:01:56;22.55;48.95
77100;SHT31;66602;48.922;2.414;2023-07-22T08:04:21;23.73;45.02
77100;SHT31;66602;48.922;2.414;2023-07-22T08:06:48;25.13;42.82
77100;SHT31;66602;48.922;2.414;2023-07-22T08:09:14;24.04;43.80
77100;SHT31;66602;48.922;2.414;2023-07-22T08:11:44;23.96;44.78
77100;SHT31;66602;48.922;2.414;2023-07-22T08:14:10;23.53;45.18
77100;SHT31;66602;48.922;2.414;2023-07-22T08:16:35;24.39;43.26
77100;SHT31;66602;48.922;2.414;2023-07-22T08:19:01;24.25;42.93
77100;SHT31;66602;48.922;2.414;2023-07-22T08:21:26;24.05;44.14
77100;SHT31;66602;48.922;2.414;2023-07-22T08:23:52;25.68;40.26
77100;SHT31;66602;48.922;2.414;2023-07-22T08:26:17;25.98;39.17
77100;SHT31;66602;48.922;2.414;2023-07-22T08:28:46;25.81;40.06
77100;SHT31;66602;48.922;2.414;2023-07-22T08:31:12;24.14;42.44
77100;SHT31;66602;48.922;2.414;2023-07-22T08:33:37;23.38;43.82
77100;SHT31;66602;48.922;2.414;2023-07-22T08:36:03;23.34;44.41
77100;SHT31;66602;48.922;2.414;2023-07-22T08:38:29;23.12;45.52
77100;SHT31;66602;48.922;2.414;2023-07-22T08:40:54;23.26;45.47
77100;SHT31;66602;48.922;2.414;2023-07-22T08:43:21;23.59;45.22
77100;SHT31;66602;48.922;2.414;2023-07-22T08:45:48;23.09;43.75
77100;SHT31;66602;48.922;2.414;2023-07-22T08:48:16;22.84;44.54
77100;SHT31;66602;48.922;2.414;2023-07-22T08:53:19;24.17;42.30
77100;SHT31;66602;48.922;2.414;2023-07-22T08:55:45;25.54;39.75
77100;SHT31;66602;48.922;2.414;2023-07-22T08:58:11;26.97;37.60
77100;SHT31;66602;48.922;2.414;2023-07-22T09:00:38;28.45;34.36
77100;SHT31;66602;48.922;2.414;2023-07-22T09:03:05;29.61;32.93
77100;SHT31;66602;48.922;2.414;2023-07-22T09:05:32;30.50;31.57
77100;SHT31;66602;48.922;2.414;2023-07-22T09:07:59;31.43;30.41
77100;SHT31;66602;48.922;2.414;2023-07-22T09:10:28;31.39;31.52
77100;SHT31;66602;48.922;2.414;2023-07-22T09:12:54;30.36;31.42
77100;SHT31;66602;48.922;2.414;2023-07-22T09:15:20;30.83;31.33
77100;SHT31;66602;48.922;2.414;2023-07-22T09:17:46;30.04;32.17
77100;SHT31;66602;48.922;2.414;2023-07-22T09:20:13;30.04;32.61
77100;SHT31;66602;48.922;2.414;2023-07-22T09:22:43;31.88;29.88
77100;SHT31;66602;48.922;2.414;2023-07-22T09:25:18;29.51;32.39
77100;SHT31;66602;48.922;2.414;2023-07-22T09:27:48;28.85;32.91
77100;SHT31;66602;48.922;2.414;2023-07-22T09:30:28;28.91;33.06
77100;SHT31;66602;48.922;2.414;2023-07-22T09:32:56;29.02;33.27
77100;SHT31;66602;48.922;2.414;2023-07-22T09:35:23;29.13;32.78
77100;SHT31;66602;48.922;2.414;2023-07-22T09:37:49;29.20;32.11
77100;SHT31;66602;48.922;2.414;2023-07-22T09:40:19;28.71;32.54
77100;SHT31;66602;48.922;2.414;2023-07-22T09:42:49;28.49;33.80
77100;SHT31;66602;48.922;2.414;2023-07-22T09:45:33;29.38;32.02
77100;SHT31;66602;48.922;2.414;2023-07-22T09:48:00;30.00;30.18
77100;SHT31;66602;48.922;2.414;2023-07-22T09:50:26;31.11;29.11
77100;SHT31;66602;48.922;2.414;2023-07-22T09:52:55;30.28;30.07
77100;SHT31;66602;48.922;2.414;2023-07-22T09:55:22;29.26;30.94
77100;SHT31;66602;48.922;2.414;2023-07-22T10:00:24;29.78;31.09
77100;SHT31;66602;48.922;2.414;2023-07-22T10:02:56;28.78;31.96
77100;SHT31;66602;48.922;2.414;2023-07-22T10:05:22;30.08;30.46
77100;SHT31;66602;48.922;2.414;2023-07-22T10:07:48;29.47;31.55
77100;SHT31;66602;48.922;2.414;2023-07-22T10:10:17;28.78;32.32
77100;SHT31;66602;48.922;2.414;2023-07-22T10:12:44;27.77;33.76
77100;SHT31;66602;48.922;2.414;2023-07-22T10:15:11;28.06;33.11
77100;SHT31;66602;48.922;2.414;2023-07-22T10:17:37;26.83;34.83
77100;SHT31;66602;48.922;2.414;2023-07-22T10:20:04;27.67;33.69
77100;SHT31;66602;48.922;2.414;2023-07-22T10:22:35;27.76;33.20
77100;SHT31;66602;48.922;2.414;2023-07-22T10:25:04;26.84;34.79
77100;SHT31;66602;48.922;2.414;2023-07-22T10:27:31;25.86;36.43
77100;SHT31;66602;48.922;2.414;2023-07-22T10:29:56;25.10;37.51
77100;SHT31;66602;48.922;2.414;2023-07-22T10:32:22;24.90;38.14
77100;SHT31;66602;48.922;2.414;2023-07-22T10:34:48;24.53;38.67
77100;SHT31;66602;48.922;2.414;2023-07-22T10:37:13;24.86;38.53
77100;SHT31;66602;48.922;2.414;2023-07-22T10:39:42;24.53;39.82
77100;SHT31;66602;48.922;2.414;2023-07-22T10:42:08;24.70;39.54
77100;SHT31;66602;48.922;2.414;2023-07-22T10:44:38;26.17;36.74
77100;SHT31;66602;48.922;2.414;2023-07-22T10:47:03;25.47;38.02
77100;SHT31;66602;48.922;2.414;2023-07-22T10:49:44;25.33;38.23
77100;SHT31;66602;48.922;2.414;2023-07-22T10:52:11;25.23;37.92
77100;SHT31;66602;48.922;2.414;2023-07-22T10:54:40;24.77;38.91
77100;SHT31;66602;48.922;2.414;2023-07-22T10:59:49;24.22;39.02
77100;SHT31;66602;48.922;2.414;2023-07-22T11:02:26;23.77;39.06
77100;SHT31;66602;48.922;2.414;2023-07-22T11:04:52;23.47;40.49
77100;SHT31;66602;48.922;2.414;2023-07-22T11:07:30;23.61;40.68
77100;SHT31;66602;48.922;2.414;2023-07-22T11:09:56;23.98;39.79
77100;SHT31;66602;48.922;2.414;2023-07-22T11:12:25;24.15;39.34
77100;SHT31;66602;48.922;2.414;2023-07-22T11:14:52;24.32;39.09
77100;SHT31;66602;48.922;2.414;2023-07-22T11:17:27;24.72;37.57
77100;SHT31;66602;48.922;2.414;2023-07-22T11:19:55;25.85;36.45
77100;SHT31;66602;48.922;2.414;2023-07-22T11:22:21;26.37;35.02
77100;SHT31;66602;48.922;2.414;2023-07-22T11:24:46;28.00;33.09
77100;SHT31;66602;48.922;2.414;2023-07-22T11:27:12;28.51;31.84
77100;SHT31;66602;48.922;2.414;2023-07-22T11:29:38;28.20;33.04
77100;SHT31;66602;48.922;2.414;2023-07-22T11:32:04;27.65;32.13
77100;SHT31;66602;48.922;2.414;2023-07-22T11:34:29;26.78;33.57
77100;SHT31;66602;48.922;2.414;2023-07-22T11:36:56;26.61;33.50
77100;SHT31;66602;48.922;2.414;2023-07-22T11:39:24;27.29;33.29
77100;SHT31;66602;48.922;2.414;2023-07-22T11:41:51;27.43;32.60
77100;SHT31;66602;48.922;2.414;2023-07-22T11:44:21;26.83;33.49
77100;SHT31;66602;48.922;2.414;2023-07-22T11:49:23;26.63;33.04
77100;SHT31;66602;48.922;2.414;2023-07-22T11:51:49;26.37;34.36
77100;SHT31;66602;48.922;2.414;2023-07-22T11:54:15;26.76;33.75
77100;SHT31;66602;48.922;2.414;2023-07-22T11:56:42;27.43;32.56
77100;SHT31;66602;48.922;2.414;2023-07-22T11:59:08;28.14;30.91
77100;SHT31;66602;48.922;2.414;2023-07-22T12:01:34;27.71;30.49
77100;SHT31;66602;48.922;2.414;2023-07-22T12:04:00;27.07;32.37
77100;SHT31;66602;48.922;2.414;2023-07-22T12:06:27;27.11;33.21
77100;SHT31;66602;48.922;2.414;2023-07-22T12:08:53;26.99;33.07
77100;SHT31;66602;48.922;2.414;2023-07-22T12:11:20;27.32;32.83
77100;SHT31;66602;48.922;2.414;2023-07-22T12:13:46;27.93;32.81
77100;SHT31;66602;48.922;2.414;2023-07-22T12:16:21;29.19;30.33
77100;SHT31;66602;48.922;2.414;2023-07-22T12:18:47;28.74;30.91
77100;SHT31;66602;48.922;2.414;2023-07-22T12:21:13;29.50;30.35
77100;SHT31;66602;48.922;2.414;2023-07-22T12:23:39;30.11;28.93
77100;SHT31;66602;48.922;2.414;2023-07-22T12:26:05;28.11;31.02
77100;SHT31;66602;48.922;2.414;2023-07-22T12:28:31;27.38;32.36
77100;SHT31;66602;48.922;2.414;2023-07-22T12:30:57;27.76;31.60
77100;SHT31;66602;48.922;2.414;2023-07-22T12:33:23;27.55;32.24
77100;SHT31;66602;48.922;2.414;2023-07-22T12:35:50;28.49;30.69
77100;SHT31;66602;48.922;2.414;2023-07-22T12:38:15;29.47;30.40
77100;SHT31;66602;48.922;2.414;2023-07-22T12:40:41;28.10;31.26
77100;SHT31;66602;48.922;2.414;2023-07-22T12:43:06;29.42;30.28
77100;SHT31;66602;48.922;2.414;2023-07-22T12:45:33;30.84;27.91
77100;SHT31;66602;48.922;2.414;2023-07-22T12:47:58;30.06;28.26
77100;SHT31;66602;48.922;2.414;2023-07-22T12:50:24;30.47;28.31
77100;SHT31;66602;48.922;2.414;2023-07-22T12:52:49;30.08;28.00
77100;SHT31;66602;48.922;2.414;2023-07-22T12:55:15;29.58;28.82
77100;SHT31;66602;48.922;2.414;2023-07-22T12:57:40;29.70;28.90
77100;SHT31;66602;48.922;2.414;2023-07-22T13:00:06;30.11;28.44
77100;SHT31;66602;48.922;2.414;2023-07-22T13:02:35;30.09;28.34
77100;SHT31;66602;48.922;2.414;2023-07-22T13:05:01;28.92;29.99
77100;SHT31;66602;48.922;2.414;2023-07-22T13:07:26;28.27;31.71
77100;SHT31;66602;48.922;2.414;2023-07-22T13:09:52;27.69;31.74
77100;SHT31;66602;48.922;2.414;2023-07-22T13:12:19;28.21;31.01
77100;SHT31;66602;48.922;2.414;2023-07-22T13:14:45;28.04;30.79
77100;SHT31;66602;48.922;2.414;2023-07-22T13:17:11;28.43;30.66
77100;SHT31;66602;48.922;2.414;2023-07-22T13:19:36;28.82;29.93
77100;SHT31;66602;48.922;2.414;2023-07-22T13:22:01;29.13;30.06
77100;SHT31;66602;48.922;2.414;2023-07-22T13:24:27;29.02;30.52
77100;SHT31;66602;48.922;2.414;2023-07-22T13:26:53;29.74;29.81
77100;SHT31;66602;48.922;2.414;2023-07-22T13:29:19;29.64;29.31
77100;SHT31;66602;48.922;2.414;2023-07-22T13:31:45;30.21;29.21
77100;SHT31;66602;48.922;2.414;2023-07-22T13:34:10;30.53;27.19
77100;SHT31;66602;48.922;2.414;2023-07-22T13:36:36;29.51;28.53
77100;SHT31;66602;48.922;2.414;2023-07-22T13:39:01;28.21;30.39
77100;SHT31;66602;48.922;2.414;2023-07-22T13:41:28;28.07;31.22
77100;SHT31;66602;48.922;2.414;2023-07-22T13:43:53;28.58;30.32
77100;SHT31;66602;48.922;2.414;2023-07-22T13:46:19;29.07;30.34
77100;SHT31;66602;48.922;2.414;2023-07-22T13:48:45;28.86;30.05
77100;SHT31;66602;48.922;2.414;2023-07-22T13:51:10;28.38;31.24
77100;SHT31;66602;48.922;2.414;2023-07-22T13:53:36;28.25;31.73
77100;SHT31;66602;48.922;2.414;2023-07-22T13:56:01;27.89;32.04
77100;SHT31;66602;48.922;2.414;2023-07-22T13:58:28;28.27;30.92
77100;SHT31;66602;48.922;2.414;2023-07-22T14:00:53;28.86;30.97
77100;SHT31;66602;48.922;2.414;2023-07-22T14:03:19;29.67;29.84
77100;SHT31;66602;48.922;2.414;2023-07-22T14:05:44;29.88;29.45
77100;SHT31;66602;48.922;2.414;2023-07-22T14:08:10;29.22;30.45
77100;SHT31;66602;48.922;2.414;2023-07-22T14:10:35;28.58;31.75
77100;SHT31;66602;48.922;2.414;2023-07-22T14:13:01;28.44;32.38
77100;SHT31;66602;48.922;2.414;2023-07-22T14:15:26;28.01;32.90
77100;SHT31;66602;48.922;2.414;2023-07-22T14:17:51;27.62;33.33
77100;SHT31;66602;48.922;2.414;2023-07-22T14:20:17;27.14;33.70
77100;SHT31;66602;48.922;2.414;2023-07-22T14:22:42;26.91;34.13
77100;SHT31;66602;48.922;2.414;2023-07-22T14:25:10;27.53;33.70
77100;SHT31;66602;48.922;2.414;2023-07-22T14:27:38;28.66;31.85
77100;SHT31;66602;48.922;2.414;2023-07-22T14:30:04;29.50;30.43
77100;SHT31;66602;48.922;2.414;2023-07-22T14:32:31;28.29;32.04
77100;SHT31;66602;48.922;2.414;2023-07-22T14:34:56;28.72;31.44
77100;SHT31;66602;48.922;2.414;2023-07-22T14:37:22;28.76;31.91
77100;SHT31;66602;48.922;2.414;2023-07-22T14:39:48;28.01;32.20
77100;SHT31;66602;48.922;2.414;2023-07-22T14:42:14;27.49;33.35
77100;SHT31;66602;48.922;2.414;2023-07-22T14:44:39;28.07;32.01
77100;SHT31;66602;48.922;2.414;2023-07-22T14:47:05;28.33;31.73
77100;SHT31;66602;48.922;2.414;2023-07-22T14:49:30;27.82;32.65
77100;SHT31;66602;48.922;2.414;2023-07-22T14:51:56;27.52;32.47
77100;SHT31;66602;48.922;2.414;2023-07-22T14:54:22;28.17;31.98
77100;SHT31;66602;48.922;2.414;2023-07-22T14:56:47;28.68;31.17
77100;SHT31;66602;48.922;2.414;2023-07-22T14:59:15;28.72;31.70
77100;SHT31;66602;48.922;2.414;2023-07-22T15:01:45;28.98;31.70
77100;SHT31;66602;48.922;2.414;2023-07-22T15:04:10;28.25;32.27
77100;SHT31;66602;48.922;2.414;2023-07-22T15:06:36;28.69;31.52
77100;SHT31;66602;48.922;2.414;2023-07-22T15:09:03;28.74;31.13
77100;SHT31;66602;48.922;2.414;2023-07-22T15:11:35;28.82;31.15
77100;SHT31;66602;48.922;2.414;2023-07-22T15:14:03;29.10;31.52
77100;SHT31;66602;48.922;2.414;2023-07-22T15:16:28;28.40;31.57
77100;SHT31;66602;48.922;2.414;2023-07-22T15:18:54;28.17;32.32
77100;SHT31;66602;48.922;2.414;2023-07-22T15:21:19;28.22;31.70
77100;SHT31;66602;48.922;2.414;2023-07-22T15:23:45;28.15;32.29
77100;SHT31;66602;48.922;2.414;2023-07-22T15:26:10;28.82;32.06
77100;SHT31;66602;48.922;2.414;2023-07-22T15:28:36;29.07;30.71
77100;SHT31;66602;48.922;2.414;2023-07-22T15:31:01;28.66;30.78
77100;SHT31;66602;48.922;2.414;2023-07-22T15:33:27;27.92;32.13
77100;SHT31;66602;48.922;2.414;2023-07-22T15:35:53;27.90;32.30